Bookmark and Share
Track history (hours):
 

Laida

Last reported at 2014-Apr-19 14:24 UTC. Time now 2014-Apr-24 01:57 UTC.
Position N 36°05' W 005°04'.

Length 100 m; draft 6.4 m.

Type: Cargo ship. MMSI: 224509000.

NotesDate/timePositionNaut miles runAvg speedWind from/ knotsBaromVisibWave heightAir tempDewpointWater temp
2014-Apr-19 14:24N 36°05' W 005°04'1112.5
2014-Apr-19 13:33N 36°05' W 005°17'8 8.1
2014-Apr-19 12:34N 36°09' W 005°26'0 0.0
2014-Apr-19 11:24N 36°09' W 005°26'0 0.0
2014-Apr-19 10:24N 36°09' W 005°26'0 0.0
2014-Apr-19 09:30N 36°09' W 005°26'0 0.0
2014-Apr-19 07:29N 36°09' W 005°26'2 2.6
2014-Apr-19 06:33N 36°07' W 005°23'1010.4
2014-Apr-19 05:33N 35°58' W 005°29'17111.3
2014-Apr-18 14:24N 36°31' W 008°57'49 9.9
2014-Apr-18 09:30N 37°07' W 009°37'1111.1
2014-Apr-18 08:33N 37°17' W 009°40'1311.1
2014-Apr-18 07:23N 37°30' W 009°44'3210.8
2014-Apr-18 04:26N 38°01' W 009°53'1010.3
2014-Apr-18 03:27N 38°11' W 009°56'  
2014-Apr-15 02:30N 50°37' W 005°36'1010.5
2014-Apr-15 01:34N 50°44' W 005°23'8712.4
2014-Apr-14 18:33N 51°21' W 003°18'1111.5
2014-Apr-14 17:33N 51°29' W 003°04'6 6.2
2014-Apr-14 16:32N 51°34' W 002°58'0 0.0
2014-Apr-14 05:31N 51°34' W 002°58'0 0.0
2014-Apr-13 13:19N 51°34' W 002°58'0 0.0
2014-Apr-13 11:19N 51°34' W 002°58'0 0.0
2014-Apr-13 06:13N 51°34' W 002°58'0 0.0
2014-Apr-13 05:31N 51°34' W 002°58'0 0.0
2014-Apr-13 04:31N 51°34' W 002°58'0 0.0
2014-Apr-13 02:19N 51°34' W 002°58'0 0.0
2014-Apr-13 01:31N 51°34' W 002°58'0 0.0
2014-Apr-13 00:25N 51°34' W 002°58'0 0.0
2014-Apr-12 23:31N 51°34' W 002°58'0 0.0
2014-Apr-12 22:25N 51°34' W 002°58'0 0.0
2014-Apr-12 21:31N 51°34' W 002°58'0 0.0
2014-Apr-12 20:25N 51°34' W 002°58'0 0.0
2014-Apr-12 19:25N 51°34' W 002°58'0 0.0
2014-Apr-12 18:07N 51°34' W 002°58'0 0.0
2014-Apr-12 17:25N 51°34' W 002°58'2 2.7
2014-Apr-12 16:31N 51°31' W 002°59'8 8.1
2014-Apr-12 15:33N 51°25' W 003°05'1010.4
2014-Apr-12 14:33N 51°21' W 003°21'  

Dump ship's entire track history

sailing weather and tide predictions

Laida — EAVE — position and weather